Time;durP1;ratioP1;P1;durP2;ratioP2;P2;SDS_P1;SDS_P2;PMS_P1;PMS_P2;Temp;Humidity;BMP_temperature;BMP_pressure;BME280_temperature;BME280_humidity;BME280_pressure;Samples;Min_cycle;Max_cycle;Signal;HPM_P1;HPM_P2
2021/12/02 00:02:14;;;;;;;;;;;6.00;99.90;;;;;;5085649;28;19924;-81
2021/12/02 00:04:42;;;;;;;;;;;6.20;99.90;;;;;;5082981;28;19924;-81
2021/12/02 00:07:09;;;;;;;;;;;6.70;99.90;;;;;;5081366;28;19957;-82
2021/12/02 00:09:36;;;;;;;;;;;6.30;99.90;;;;;;5081202;28;19978;-81
2021/12/02 00:12:03;;;;;;;;;;;6.20;99.90;;;;;;5092472;28;19932;-81
2021/12/02 00:14:39;;;;;;;;;;;6.20;99.90;;;;;;5098615;28;19968;-82
2021/12/02 00:17:09;;;;;;;;;;;6.20;99.90;;;;;;5089783;28;19932;-80
2021/12/02 00:22:20;;;;;;;;;;;6.10;99.90;;;;;;5098546;28;19920;-80
2021/12/02 00:24:51;;;;;;;;;;;6.00;99.90;;;;;;5093107;28;19925;-81
2021/12/02 00:27:19;;;;;;;;;;;6.20;99.90;;;;;;5093636;28;19909;-80
2021/12/02 00:29:47;;;;;;;;;;;6.40;99.90;;;;;;5091732;28;19928;-79
2021/12/02 00:32:14;;;;;;;;;;;6.00;99.90;;;;;;5086259;28;19931;-82
2021/12/02 00:34:42;;;;;;;;;;;5.50;99.90;;;;;;5082504;28;19924;-82
2021/12/02 00:37:09;;;;;;;;;;;6.00;99.90;;;;;;5080185;28;19928;-82
2021/12/02 00:39:36;;;;;;;;;;;6.00;99.90;;;;;;5075434;22;20328;-81
2021/12/02 00:42:02;;;;;;;;;;;6.00;99.90;;;;;;5058806;28;19971;-80
2021/12/02 00:44:31;;;;;;;;;;;6.00;99.90;;;;;;5058862;28;19932;-81
2021/12/02 00:47:01;;;;;;;;;;;6.00;99.90;;;;;;5058411;28;19975;-81
2021/12/02 00:49:28;;;;;;;;;;;6.00;99.90;;;;;;5059292;28;19974;-80
2021/12/02 00:51:56;;;;;;;;;;;6.00;99.90;;;;;;5068684;28;20034;-81
2021/12/02 00:54:23;;;;;;;;;;;5.80;99.90;;;;;;5065378;28;19925;-80
2021/12/02 00:56:49;;;;;;;;;;;6.10;99.90;;;;;;5072401;28;19925;-80
2021/12/02 00:59:16;;;;;;;;;;;6.00;99.90;;;;;;5073052;28;19929;-80
2021/12/02 01:01:43;;;;;;;;;;;5.90;99.90;;;;;;5073590;28;19924;-79
2021/12/02 01:04:12;;;;;;;;;;;5.80;99.90;;;;;;5072780;28;19932;-80
2021/12/02 01:06:38;;;;;;;;;;;5.50;99.90;;;;;;5073069;28;20394;-81
2021/12/02 01:09:06;;;;;;;;;;;5.10;99.90;;;;;;5071183;28;19925;-79
2021/12/02 01:11:33;;;;;;;;;;;3.90;99.90;;;;;;5070773;28;19925;-79
2021/12/02 01:14:00;;;;;;;;;;;4.60;99.90;;;;;;5061426;28;19925;-80
2021/12/02 01:16:26;;;;;;;;;;;4.60;99.90;;;;;;5059590;28;19929;-81
2021/12/02 01:18:53;;;;;;;;;;;4.40;99.90;;;;;;5058517;28;19974;-81
2021/12/02 01:21:22;;;;;;;;;;;4.50;99.90;;;;;;5059504;28;19972;-81
2021/12/02 01:23:50;;;;;;;;;;;3.90;99.90;;;;;;5058912;28;19978;-81
2021/12/02 01:26:17;;;;;;;;;;;3.90;99.90;;;;;;5058560;28;20391;-81
2021/12/02 01:28:44;;;;;;;;;;;3.80;99.90;;;;;;5057369;28;19925;-81
2021/12/02 01:31:11;;;;;;;;;;;3.80;99.90;;;;;;5057739;28;20066;-82
2021/12/02 01:33:38;;;;;;;;;;;3.70;99.90;;;;;;5057722;28;19948;-81
2021/12/02 01:36:05;;;;;;;;;;;3.80;99.90;;;;;;5058262;28;20326;-81
2021/12/02 01:38:34;;;;;;;;;;;3.40;99.90;;;;;;5057971;28;19967;-81
2021/12/02 01:41:02;;;;;;;;;;;3.60;99.90;;;;;;5058333;28;20023;-81
2021/12/02 01:43:44;;;;;;;;;;;3.50;99.90;;;;;;5058884;28;19931;-81
2021/12/02 01:46:11;;;;;;;;;;;3.60;99.90;;;;;;5069948;28;19924;-80
2021/12/02 01:48:40;;;;;;;;;;;3.70;99.90;;;;;;5072119;28;19932;-80
2021/12/02 01:51:07;;;;;;;;;;;3.70;99.90;;;;;;5065489;28;20027;-81
2021/12/02 01:53:36;;;;;;;;;;;3.80;99.90;;;;;;5069758;28;19951;-81
2021/12/02 01:56:09;;;;;;;;;;;3.70;99.90;;;;;;5069264;28;19924;-81
2021/12/02 01:58:40;;;;;;;;;;;3.80;99.90;;;;;;5068128;28;20021;-79
2021/12/02 02:01:08;;;;;;;;;;;3.90;99.90;;;;;;5071356;28;20000;-79
2021/12/02 02:03:35;;;;;;;;;;;3.70;99.90;;;;;;5070780;28;19925;-81
2021/12/02 02:06:04;;;;;;;;;;;3.90;99.90;;;;;;5064106;28;19924;-81
2021/12/02 02:08:31;;;;;;;;;;;3.90;99.90;;;;;;5059299;28;19925;-82
2021/12/02 02:10:59;;;;;;;;;;;4.00;99.90;;;;;;5061034;28;19956;-81
2021/12/02 02:13:25;;;;;;;;;;;4.00;99.90;;;;;;5060604;28;20326;-79
2021/12/02 02:15:53;;;;;;;;;;;3.60;99.90;;;;;;5060953;28;20279;-80
2021/12/02 02:18:20;;;;;;;;;;;4.00;99.90;;;;;;5059468;28;19932;-81
2021/12/02 02:20:52;;;;;;;;;;;4.00;99.90;;;;;;5061874;28;19982;-81
2021/12/02 02:23:18;;;;;;;;;;;4.00;99.90;;;;;;5062216;28;19925;-81
2021/12/02 02:25:46;;;;;;;;;;;3.90;99.90;;;;;;5061546;28;20394;-81
2021/12/02 02:28:13;;;;;;;;;;;3.80;99.90;;;;;;5061268;28;19925;-81
2021/12/02 02:30:39;;;;;;;;;;;3.80;99.90;;;;;;5074520;28;19924;-81
2021/12/02 02:33:06;;;;;;;;;;;3.90;99.90;;;;;;5065456;28;19959;-80
2021/12/02 02:35:32;;;;;;;;;;;3.20;99.90;;;;;;5070418;28;19925;-81
2021/12/02 02:38:00;;;;;;;;;;;3.90;99.90;;;;;;5065849;28;19925;-80
2021/12/02 02:40:27;;;;;;;;;;;3.80;99.90;;;;;;5065693;28;20020;-80
2021/12/02 02:42:58;;;;;;;;;;;3.90;99.90;;;;;;5070567;28;19925;-79
2021/12/02 02:45:25;;;;;;;;;;;3.90;99.90;;;;;;5073609;28;19992;-78
2021/12/02 02:47:51;;;;;;;;;;;3.90;99.90;;;;;;5067180;28;20391;-79
2021/12/02 02:50:18;;;;;;;;;;;3.90;99.90;;;;;;5064853;28;19925;-82
2021/12/02 02:52:46;;;;;;;;;;;3.80;99.90;;;;;;5071209;28;19932;-82
2021/12/02 02:55:18;;;;;;;;;;;3.90;99.90;;;;;;5067416;28;19924;-79
2021/12/02 02:57:51;;;;;;;;;;;4.00;99.90;;;;;;5065694;28;19924;-80
2021/12/02 03:00:22;;;;;;;;;;;3.60;99.90;;;;;;5067161;28;19972;-80
2021/12/02 03:02:55;;;;;;;;;;;3.60;99.90;;;;;;5065133;28;19924;-80
2021/12/02 03:05:26;;;;;;;;;;;3.90;99.90;;;;;;5062645;28;20307;-81
2021/12/02 03:07:55;;;;;;;;;;;4.10;99.90;;;;;;5063836;28;19971;-80
2021/12/02 03:10:32;;;;;;;;;;;3.50;99.90;;;;;;5069436;28;19986;-81
2021/12/02 03:13:09;;;;;;;;;;;3.80;99.90;;;;;;5065613;28;19925;-81
2021/12/02 03:18:20;;;;;;;;;;;4.10;99.90;;;;;;5064634;28;19928;-81
2021/12/02 03:20:46;;;;;;;;;;;4.00;99.90;;;;;;5064424;28;19986;-81
2021/12/02 03:23:13;;;;;;;;;;;4.00;99.90;;;;;;5067198;28;19925;-80
2021/12/02 03:25:41;;;;;;;;;;;4.00;99.90;;;;;;5070305;28;19925;-80
2021/12/02 03:28:07;;;;;;;;;;;3.90;99.90;;;;;;5066496;28;20315;-81
2021/12/02 03:30:33;;;;;;;;;;;3.50;99.90;;;;;;5065784;28;19924;-81
2021/12/02 03:33:00;;;;;;;;;;;3.90;99.90;;;;;;5065339;28;19925;-80
2021/12/02 03:35:26;;;;;;;;;;;4.10;99.90;;;;;;5061085;28;20323;-78
2021/12/02 03:37:53;;;;;;;;;;;3.90;99.90;;;;;;5061710;28;20360;-80
2021/12/02 03:40:19;;;;;;;;;;;3.90;99.90;;;;;;5060313;28;19929;-80
2021/12/02 03:42:48;;;;;;;;;;;3.60;99.90;;;;;;5068133;28;19975;-79
2021/12/02 03:45:15;;;;;;;;;;;3.80;99.90;;;;;;5067400;28;19924;-78
2021/12/02 03:47:42;;;;;;;;;;;4.00;99.90;;;;;;5061320;28;19926;-79
2021/12/02 03:50:09;;;;;;;;;;;3.50;99.90;;;;;;5059736;28;19956;-80
2021/12/02 03:52:35;;;;;;;;;;;3.70;99.90;;;;;;5060050;28;19929;-81
2021/12/02 03:55:02;;;;;;;;;;;4.00;99.90;;;;;;5060167;28;19924;-81
2021/12/02 03:57:29;;;;;;;;;;;4.00;99.90;;;;;;5060140;28;19955;-80
2021/12/02 03:59:56;;;;;;;;;;;4.00;99.90;;;;;;5058426;28;19925;-81
2021/12/02 04:02:23;;;;;;;;;;;3.30;99.90;;;;;;5061478;28;19925;-80
2021/12/02 04:04:49;;;;;;;;;;;3.80;99.90;;;;;;5058933;28;19928;-81
2021/12/02 04:07:18;;;;;;;;;;;3.40;99.90;;;;;;5065742;28;19925;-81
2021/12/02 04:09:45;;;;;;;;;;;3.90;99.90;;;;;;5069115;28;20056;-80
2021/12/02 04:12:18;;;;;;;;;;;4.10;99.90;;;;;;5064550;28;19924;-81
2021/12/02 04:14:52;;;;;;;;;;;3.90;99.90;;;;;;5059307;28;19931;-81
2021/12/02 04:17:29;;;;;;;;;;;3.70;99.90;;;;;;5059229;28;19964;-80
2021/12/02 04:19:55;;;;;;;;;;;3.90;99.90;;;;;;5059657;28;20252;-81
2021/12/02 04:22:22;;;;;;;;;;;3.80;99.90;;;;;;5058887;28;19925;-80
2021/12/02 04:24:48;;;;;;;;;;;3.60;99.90;;;;;;5059021;28;19972;-82
2021/12/02 04:27:14;;;;;;;;;;;3.90;99.90;;;;;;5063342;28;19963;-79
2021/12/02 04:29:41;;;;;;;;;;;3.80;99.90;;;;;;5068382;28;19925;-78
2021/12/02 04:32:08;;;;;;;;;;;3.70;99.90;;;;;;5066761;28;20303;-78
2021/12/02 04:34:35;;;;;;;;;;;3.80;99.90;;;;;;5068664;28;19932;-79
2021/12/02 04:37:02;;;;;;;;;;;3.80;99.90;;;;;;5070289;28;19951;-81
2021/12/02 04:39:28;;;;;;;;;;;3.70;99.90;;;;;;5060453;28;19924;-81
2021/12/02 04:41:55;;;;;;;;;;;3.80;99.90;;;;;;5058969;28;19925;-81
2021/12/02 04:44:21;;;;;;;;;;;3.70;99.90;;;;;;5058852;28;19928;-81
2021/12/02 04:46:50;;;;;;;;;;;3.70;99.90;;;;;;5059197;28;19967;-81
2021/12/02 04:49:16;;;;;;;;;;;3.70;99.90;;;;;;5058973;28;19928;-82
2021/12/02 04:51:44;;;;;;;;;;;3.60;99.90;;;;;;5058790;28;19968;-82
2021/12/02 04:54:11;;;;;;;;;;;4.10;99.90;;;;;;5058020;28;19925;-81
2021/12/02 04:56:38;;;;;;;;;;;3.70;99.90;;;;;;5057050;28;19926;-81
2021/12/02 04:59:05;;;;;;;;;;;3.60;99.90;;;;;;5058045;28;19925;-82
2021/12/02 05:01:31;;;;;;;;;;;3.60;99.90;;;;;;5057791;28;20298;-81
2021/12/02 05:03:57;;;;;;;;;;;3.70;99.90;;;;;;5061273;28;19975;-81
2021/12/02 05:06:24;;;;;;;;;;;3.60;99.90;;;;;;5060153;28;19924;-81
2021/12/02 05:08:52;;;;;;;;;;;3.60;99.90;;;;;;5060657;28;19994;-81
2021/12/02 05:11:18;;;;;;;;;;;3.60;99.90;;;;;;5059044;28;19925;-81
2021/12/02 05:13:45;;;;;;;;;;;3.50;99.90;;;;;;5064870;28;19976;-79
2021/12/02 05:16:11;;;;;;;;;;;3.50;99.90;;;;;;5069188;28;19924;-79
2021/12/02 05:18:39;;;;;;;;;;;3.50;99.90;;;;;;5069493;28;19925;-79
2021/12/02 05:21:05;;;;;;;;;;;3.40;99.90;;;;;;5069247;28;19952;-79
2021/12/02 05:23:32;;;;;;;;;;;3.50;99.90;;;;;;5069059;28;19925;-80
2021/12/02 05:26:00;;;;;;;;;;;2.80;99.90;;;;;;5069230;28;19925;-80
2021/12/02 05:28:26;;;;;;;;;;;3.20;99.90;;;;;;5068953;28;19951;-80
2021/12/02 05:30:55;;;;;;;;;;;3.40;99.90;;;;;;5068948;28;19925;-80
2021/12/02 05:33:21;;;;;;;;;;;2.80;99.90;;;;;;5070479;28;19982;-79
2021/12/02 05:35:48;;;;;;;;;;;3.50;99.90;;;;;;5072566;28;19982;-79
2021/12/02 05:38:14;;;;;;;;;;;3.40;99.90;;;;;;5071432;28;19925;-80
2021/12/02 05:40:41;;;;;;;;;;;3.30;99.90;;;;;;5062413;28;20342;-80
2021/12/02 05:43:09;;;;;;;;;;;3.30;99.90;;;;;;5059975;28;20402;-81
2021/12/02 05:45:35;;;;;;;;;;;3.40;99.90;;;;;;5057335;28;19925;-81
2021/12/02 05:48:02;;;;;;;;;;;3.50;99.90;;;;;;5057532;28;19983;-80
2021/12/02 05:50:28;;;;;;;;;;;3.30;99.90;;;;;;5057618;28;19972;-81
2021/12/02 05:52:55;;;;;;;;;;;3.20;99.90;;;;;;5064022;28;19925;-80
2021/12/02 05:55:22;;;;;;;;;;;3.40;99.90;;;;;;5073705;28;19925;-78
2021/12/02 05:57:48;;;;;;;;;;;3.50;99.90;;;;;;5066653;28;19947;-80
2021/12/02 06:00:17;;;;;;;;;;;3.40;99.90;;;;;;5067442;28;19928;-82
2021/12/02 06:02:43;;;;;;;;;;;3.50;99.90;;;;;;5065079;28;19971;-82
2021/12/02 06:05:10;;;;;;;;;;;3.50;99.90;;;;;;5062596;28;20272;-81
2021/12/02 06:07:37;;;;;;;;;;;3.60;99.90;;;;;;5060623;28;19935;-80
2021/12/02 06:10:04;;;;;;;;;;;3.30;99.90;;;;;;5061269;28;19948;-81
2021/12/02 06:12:31;;;;;;;;;;;3.50;99.90;;;;;;5061058;28;20431;-81
2021/12/02 06:14:57;;;;;;;;;;;3.90;99.90;;;;;;5060541;28;20448;-80
2021/12/02 06:17:25;;;;;;;;;;;3.50;99.90;;;;;;5061176;28;20363;-81
2021/12/02 06:19:51;;;;;;;;;;;3.50;99.90;;;;;;5060790;28;19941;-81
2021/12/02 06:22:18;;;;;;;;;;;3.40;99.90;;;;;;5061199;28;19951;-81
2021/12/02 06:24:47;;;;;;;;;;;4.30;99.90;;;;;;5061967;28;19924;-81
2021/12/02 06:27:14;;;;;;;;;;;3.50;99.90;;;;;;5061297;28;19925;-81
2021/12/02 06:29:40;;;;;;;;;;;3.50;99.90;;;;;;5065549;28;19929;-81
2021/12/02 06:32:08;;;;;;;;;;;3.40;99.90;;;;;;5064668;28;20322;-81
2021/12/02 06:34:36;;;;;;;;;;;3.40;99.90;;;;;;5061992;28;19998;-78
2021/12/02 06:37:03;;;;;;;;;;;3.40;99.90;;;;;;5065207;28;19932;-78
2021/12/02 06:39:29;;;;;;;;;;;3.40;99.90;;;;;;5093527;22;19935;-79
2021/12/02 06:41:56;;;;;;;;;;;2.90;99.90;;;;;;5092336;28;19924;-81
2021/12/02 06:44:22;;;;;;;;;;;3.20;99.90;;;;;;5092931;28;19966;-79
2021/12/02 06:46:49;;;;;;;;;;;3.50;99.90;;;;;;5092261;28;19954;-79
2021/12/02 06:49:15;;;;;;;;;;;3.20;99.90;;;;;;5093960;28;19935;-80
2021/12/02 06:51:43;;;;;;;;;;;3.30;99.90;;;;;;5100969;28;19935;-80
2021/12/02 06:54:10;;;;;;;;;;;3.00;99.90;;;;;;5097319;28;19924;-80
2021/12/02 06:56:36;;;;;;;;;;;3.10;99.90;;;;;;5091056;28;19924;-80
2021/12/02 06:59:03;;;;;;;;;;;3.20;99.90;;;;;;5099092;28;19923;-80
2021/12/02 07:01:29;;;;;;;;;;;3.00;99.90;;;;;;5098002;28;19924;-80
2021/12/02 07:03:56;;;;;;;;;;;2.70;99.90;;;;;;5090441;28;19925;-80
2021/12/02 07:06:22;;;;;;;;;;;3.50;99.90;;;;;;5091036;28;19924;-79
2021/12/02 07:08:51;;;;;;;;;;;3.00;99.90;;;;;;5089380;28;20387;-80
2021/12/02 07:11:18;;;;;;;;;;;3.00;99.90;;;;;;5090121;28;19924;-78
2021/12/02 07:13:47;;;;;;;;;;;3.20;99.90;;;;;;5089553;28;20298;-79
2021/12/02 07:16:13;;;;;;;;;;;3.10;99.90;;;;;;5090506;28;19924;-79
2021/12/02 07:18:44;;;;;;;;;;;3.00;99.90;;;;;;5091727;28;19924;-78
2021/12/02 07:21:10;;;;;;;;;;;2.90;99.90;;;;;;5088008;28;19936;-80
2021/12/02 07:23:37;;;;;;;;;;;3.20;99.90;;;;;;5084759;28;19924;-79
2021/12/02 07:26:05;;;;;;;;;;;2.90;99.90;;;;;;5090193;28;19912;-79
2021/12/02 07:28:35;;;;;;;;;;;2.90;99.90;;;;;;5092296;28;19924;-80
2021/12/02 07:31:03;;;;;;;;;;;2.80;99.90;;;;;;5094645;28;19925;-78
2021/12/02 07:33:30;;;;;;;;;;;3.10;99.90;;;;;;5095971;28;19984;-79
2021/12/02 07:35:57;;;;;;;;;;;2.60;99.90;;;;;;5096305;28;19925;-77
2021/12/02 07:38:24;;;;;;;;;;;3.10;99.90;;;;;;5095071;28;19947;-82
2021/12/02 07:40:51;;;;;;;;;;;3.00;99.90;;;;;;5092008;28;19925;-80
2021/12/02 07:43:20;;;;;;;;;;;2.80;99.90;;;;;;5092021;28;19924;-79
2021/12/02 07:45:46;;;;;;;;;;;3.10;99.90;;;;;;5091699;28;19931;-79
2021/12/02 07:48:14;;;;;;;;;;;3.10;99.90;;;;;;5092388;28;19925;-79
2021/12/02 07:50:40;;;;;;;;;;;3.00;99.90;;;;;;5092830;28;19929;-79
2021/12/02 07:53:08;;;;;;;;;;;2.90;99.90;;;;;;5089782;28;19947;-80
2021/12/02 07:55:36;;;;;;;;;;;2.40;99.90;;;;;;5090175;28;20402;-78
2021/12/02 07:58:04;;;;;;;;;;;2.90;99.90;;;;;;5091256;28;19924;-78
2021/12/02 08:00:32;;;;;;;;;;;2.70;99.90;;;;;;5092804;28;19932;-80
2021/12/02 08:02:58;;;;;;;;;;;3.00;99.90;;;;;;5092668;28;19928;-78
2021/12/02 08:05:26;;;;;;;;;;;3.10;99.90;;;;;;5093919;28;19932;-78
2021/12/02 08:07:53;;;;;;;;;;;3.00;99.90;;;;;;5091620;28;19924;-78
2021/12/02 08:10:20;;;;;;;;;;;3.10;99.90;;;;;;5090877;28;19928;-77
2021/12/02 08:12:48;;;;;;;;;;;2.90;99.90;;;;;;5089207;28;19924;-80
2021/12/02 08:15:16;;;;;;;;;;;3.20;99.90;;;;;;5091577;28;19928;-79
2021/12/02 08:17:44;;;;;;;;;;;3.10;99.90;;;;;;5092215;28;20003;-78
2021/12/02 08:20:11;;;;;;;;;;;3.10;99.90;;;;;;5091628;28;19925;-78
2021/12/02 08:22:37;;;;;;;;;;;3.10;99.90;;;;;;5087895;28;20337;-79
2021/12/02 08:25:04;;;;;;;;;;;3.00;99.90;;;;;;5083071;28;19974;-81
2021/12/02 08:27:31;;;;;;;;;;;3.20;99.90;;;;;;5084929;28;19951;-81
2021/12/02 08:29:58;;;;;;;;;;;3.10;99.90;;;;;;5085834;28;19925;-80
2021/12/02 08:32:24;;;;;;;;;;;3.00;99.90;;;;;;5084068;28;19925;-81
2021/12/02 08:34:54;;;;;;;;;;;2.80;99.90;;;;;;5083989;28;19924;-80
2021/12/02 08:37:21;;;;;;;;;;;2.90;99.90;;;;;;5083201;28;19925;-80
2021/12/02 08:39:48;;;;;;;;;;;3.10;99.90;;;;;;5082394;28;19931;-80
2021/12/02 08:42:16;;;;;;;;;;;2.90;99.90;;;;;;5082382;28;19931;-80
2021/12/02 08:44:43;;;;;;;;;;;3.00;99.90;;;;;;5083530;28;19975;-80
2021/12/02 08:47:11;;;;;;;;;;;2.80;99.90;;;;;;5081284;28;19970;-80
2021/12/02 08:49:37;;;;;;;;;;;3.10;99.90;;;;;;5081051;28;19988;-80
2021/12/02 08:52:05;;;;;;;;;;;2.90;99.90;;;;;;5080715;28;19924;-79
2021/12/02 08:54:32;;;;;;;;;;;3.20;99.90;;;;;;5080471;28;20041;-80
2021/12/02 08:56:58;;;;;;;;;;;3.00;99.90;;;;;;5081175;28;20395;-80
2021/12/02 08:59:25;;;;;;;;;;;3.00;99.90;;;;;;5080539;28;19924;-78
2021/12/02 09:01:51;;;;;;;;;;;3.10;99.90;;;;;;5080883;28;19924;-80
2021/12/02 09:04:18;;;;;;;;;;;3.00;99.90;;;;;;5080105;28;19924;-79
2021/12/02 09:06:44;;;;;;;;;;;2.90;99.90;;;;;;5079962;28;19924;-81
2021/12/02 09:09:12;;;;;;;;;;;3.00;99.90;;;;;;5080305;28;19971;-80
2021/12/02 09:11:39;;;;;;;;;;;2.90;99.90;;;;;;5081382;28;19928;-81
2021/12/02 09:14:06;;;;;;;;;;;2.80;99.90;;;;;;5080268;28;19933;-78
2021/12/02 09:16:34;;;;;;;;;;;2.70;99.90;;;;;;5079735;28;19925;-80
2021/12/02 09:19:00;;;;;;;;;;;2.90;99.90;;;;;;5079022;28;19995;-80
2021/12/02 09:21:28;;;;;;;;;;;3.00;99.90;;;;;;5082552;28;19924;-81
2021/12/02 09:23:55;;;;;;;;;;;2.90;99.90;;;;;;5084467;28;19964;-79
2021/12/02 09:26:23;;;;;;;;;;;2.80;99.90;;;;;;5081322;28;19928;-78
2021/12/02 09:28:54;;;;;;;;;;;3.00;99.90;;;;;;5080784;28;19955;-80
2021/12/02 09:31:21;;;;;;;;;;;2.90;99.90;;;;;;5080125;28;19936;-79
2021/12/02 09:33:47;;;;;;;;;;;3.00;99.90;;;;;;5085424;28;19924;-79
2021/12/02 09:36:14;;;;;;;;;;;3.00;99.90;;;;;;5083346;28;19924;-80
2021/12/02 09:38:41;;;;;;;;;;;2.80;99.90;;;;;;5084242;28;19934;-79
2021/12/02 09:41:07;;;;;;;;;;;3.00;99.90;;;;;;5085521;28;19990;-80
2021/12/02 09:43:35;;;;;;;;;;;2.90;99.90;;;;;;5084651;28;19925;-80
2021/12/02 09:46:02;;;;;;;;;;;2.90;99.90;;;;;;5083814;28;19931;-79
2021/12/02 09:48:28;;;;;;;;;;;3.00;99.90;;;;;;5083772;28;19946;-80
2021/12/02 09:51:03;;;;;;;;;;;2.80;99.90;;;;;;5093968;28;19924;-78
2021/12/02 09:53:34;;;;;;;;;;;2.90;99.90;;;;;;5099422;28;19925;-78
2021/12/02 09:56:09;;;;;;;;;;;2.90;99.90;;;;;;5097038;28;19933;-78
2021/12/02 09:58:36;;;;;;;;;;;3.10;99.90;;;;;;5092784;28;20023;-81
2021/12/02 10:01:08;;;;;;;;;;;2.80;99.90;;;;;;5084180;28;19974;-80
2021/12/02 10:03:36;;;;;;;;;;;2.80;99.90;;;;;;5085569;28;20371;-81
2021/12/02 10:06:06;;;;;;;;;;;3.00;99.90;;;;;;5083292;28;19924;-80
2021/12/02 10:08:37;;;;;;;;;;;3.30;99.90;;;;;;5099482;28;19931;-80
2021/12/02 10:11:06;;;;;;;;;;;2.80;99.90;;;;;;5100243;28;19908;-80
2021/12/02 10:13:36;;;;;;;;;;;3.10;99.90;;;;;;5085750;28;19924;-82
2021/12/02 10:16:05;;;;;;;;;;;3.00;99.90;;;;;;5097928;28;19968;-80
2021/12/02 10:18:36;;;;;;;;;;;3.10;99.90;;;;;;5100364;28;19913;-80
2021/12/02 10:21:15;;;;;;;;;;;3.10;99.90;;;;;;5094780;28;19952;-77
2021/12/02 10:23:46;;;;;;;;;;;3.00;99.90;;;;;;5097472;28;19964;-77
2021/12/02 10:26:13;;;;;;;;;;;3.00;99.90;;;;;;5088766;28;19924;-79
2021/12/02 10:28:42;;;;;;;;;;;3.10;99.90;;;;;;5085316;28;19960;-79
2021/12/02 10:31:11;;;;;;;;;;;3.00;99.90;;;;;;5085666;28;20406;-80
2021/12/02 10:33:38;;;;;;;;;;;3.10;99.90;;;;;;5085499;28;19967;-80
2021/12/02 10:36:06;;;;;;;;;;;3.20;99.90;;;;;;5083599;28;19924;-80
2021/12/02 10:38:33;;;;;;;;;;;3.30;99.90;;;;;;5082456;28;20345;-80
2021/12/02 10:41:00;;;;;;;;;;;3.50;99.90;;;;;;5086776;28;19925;-80
2021/12/02 10:43:27;;;;;;;;;;;3.40;99.90;;;;;;5085833;28;19931;-79
2021/12/02 10:46:12;;;;;;;;;;;3.50;99.90;;;;;;5083467;28;19924;-79
2021/12/02 10:48:47;;;;;;;;;;;3.30;99.90;;;;;;5086751;28;19924;-80
2021/12/02 10:51:28;;;;;;;;;;;3.30;99.90;;;;;;5093262;28;19980;-80
2021/12/02 10:54:02;;;;;;;;;;;3.10;99.90;;;;;;5093132;28;19947;-78
2021/12/02 10:56:32;;;;;;;;;;;3.30;99.90;;;;;;5094201;28;19924;-78
2021/12/02 10:59:16;;;;;;;;;;;3.10;99.90;;;;;;5094866;28;19947;-80
2021/12/02 11:01:43;;;;;;;;;;;3.00;99.90;;;;;;5092829;28;19932;-81
2021/12/02 11:04:13;;;;;;;;;;;3.30;99.90;;;;;;5090187;28;19925;-80
2021/12/02 11:06:41;;;;;;;;;;;3.30;99.90;;;;;;5085802;28;19931;-79
2021/12/02 11:09:23;;;;;;;;;;;3.30;99.90;;;;;;5083656;28;20345;-81
2021/12/02 11:12:04;;;;;;;;;;;3.40;99.90;;;;;;5083319;28;19932;-80
2021/12/02 11:14:30;;;;;;;;;;;3.20;99.90;;;;;;5082362;28;20363;-79
2021/12/02 11:17:06;;;;;;;;;;;3.30;99.90;;;;;;5084837;28;19928;-79
2021/12/02 11:19:34;;;;;;;;;;;3.40;99.90;;;;;;5081986;28;20388;-80
2021/12/02 11:22:04;;;;;;;;;;;3.00;99.90;;;;;;5082704;28;19978;-79
2021/12/02 11:24:31;;;;;;;;;;;3.50;99.90;;;;;;5081823;28;19974;-80
2021/12/02 11:27:06;;;;;;;;;;;3.50;99.90;;;;;;5082230;28;19928;-80
2021/12/02 11:29:45;;;;;;;;;;;3.60;99.90;;;;;;5081335;28;19924;-79
2021/12/02 11:32:23;;;;;;;;;;;3.60;99.90;;;;;;5081608;28;20373;-81
2021/12/02 11:34:58;;;;;;;;;;;3.50;99.90;;;;;;5081403;28;19925;-80
2021/12/02 11:37:25;;;;;;;;;;;3.50;99.90;;;;;;5081570;28;19924;-79
2021/12/02 11:39:51;;;;;;;;;;;3.50;99.90;;;;;;5089491;28;20357;-80
2021/12/02 11:42:18;;;;;;;;;;;3.40;99.90;;;;;;5079711;28;19928;-78
2021/12/02 11:44:45;;;;;;;;;;;3.50;99.90;;;;;;5080566;28;19929;-80
2021/12/02 11:47:11;;;;;;;;;;;3.50;99.90;;;;;;5080624;28;19931;-79
2021/12/02 11:49:38;;;;;;;;;;;3.60;99.90;;;;;;5081033;28;19928;-80
2021/12/02 11:52:06;;;;;;;;;;;3.50;99.90;;;;;;5080467;28;19924;-79
2021/12/02 11:54:33;;;;;;;;;;;3.70;99.90;;;;;;5083673;28;19971;-78
2021/12/02 11:57:00;;;;;;;;;;;3.70;99.90;;;;;;5093320;28;19924;-79
2021/12/02 11:59:26;;;;;;;;;;;3.70;99.90;;;;;;5090274;28;19928;-80
2021/12/02 12:01:55;;;;;;;;;;;3.40;99.90;;;;;;5080371;28;19929;-80
2021/12/02 12:04:22;;;;;;;;;;;3.70;99.90;;;;;;5079175;28;19924;-80
2021/12/02 12:06:53;;;;;;;;;;;3.60;99.90;;;;;;5089141;28;19924;-79
2021/12/02 12:09:21;;;;;;;;;;;3.70;99.90;;;;;;5096746;28;19925;-79
2021/12/02 12:11:48;;;;;;;;;;;3.90;99.90;;;;;;5096393;28;19964;-80
2021/12/02 12:14:18;;;;;;;;;;;3.70;99.90;;;;;;5091061;28;19943;-80
2021/12/02 12:16:46;;;;;;;;;;;3.80;99.90;;;;;;5081219;28;19996;-80
2021/12/02 12:19:17;;;;;;;;;;;3.70;99.90;;;;;;5081621;28;19974;-80
2021/12/02 12:21:45;;;;;;;;;;;3.60;99.90;;;;;;5085187;28;19974;-80
2021/12/02 12:24:14;;;;;;;;;;;3.50;99.90;;;;;;5090269;28;19916;-80
2021/12/02 12:26:45;;;;;;;;;;;3.70;99.90;;;;;;5089682;28;19935;-80
2021/12/02 12:29:20;;;;;;;;;;;3.60;99.90;;;;;;5089140;28;19925;-78
2021/12/02 12:32:12;;;;;;;;;;;3.50;99.90;;;;;;5088712;28;19973;-79
2021/12/02 12:34:44;;;;;;;;;;;3.70;99.90;;;;;;5068176;28;19924;-78
2021/12/02 12:37:28;;;;;;;;;;;3.70;99.90;;;;;;5095192;28;19925;-78
2021/12/02 12:40:05;;;;;;;;;;;3.70;99.90;;;;;;5100866;22;19931;-78
2021/12/02 12:42:34;;;;;;;;;;;2.50;99.90;;;;;;5076683;28;19974;-78
2021/12/02 12:45:01;;;;;;;;;;;3.70;99.90;;;;;;5087672;28;20275;-78
2021/12/02 12:47:42;;;;;;;;;;;3.40;99.90;;;;;;5084353;28;19928;-79
2021/12/02 12:50:21;;;;;;;;;;;3.60;99.90;;;;;;5081234;28;19931;-80
2021/12/02 12:52:52;;;;;;;;;;;3.60;99.90;;;;;;5079963;28;19981;-78
2021/12/02 12:55:19;;;;;;;;;;;3.50;99.90;;;;;;5078867;28;19924;-79
2021/12/02 12:58:04;;;;;;;;;;;3.60;99.90;;;;;;5083851;28;19924;-77
2021/12/02 13:00:36;;;;;;;;;;;3.50;99.90;;;;;;5089562;28;19924;-77
2021/12/02 13:03:08;;;;;;;;;;;3.70;99.90;;;;;;5087643;28;19931;-78
2021/12/02 13:05:41;;;;;;;;;;;3.60;99.90;;;;;;5085656;28;19956;-78
2021/12/02 13:08:18;;;;;;;;;;;3.70;99.90;;;;;;5078642;28;19928;-81
2021/12/02 13:10:54;;;;;;;;;;;3.80;99.90;;;;;;5088990;28;19932;-78
2021/12/02 13:13:22;;;;;;;;;;;3.80;99.90;;;;;;5090257;28;19924;-77
2021/12/02 13:15:50;;;;;;;;;;;3.60;99.90;;;;;;5089900;28;19956;-78
2021/12/02 13:18:33;;;;;;;;;;;3.60;99.90;;;;;;5080072;28;19964;-82
2021/12/02 13:21:17;;;;;;;;;;;3.70;99.90;;;;;;5076879;28;19960;-78
2021/12/02 13:23:53;;;;;;;;;;;3.50;99.90;;;;;;5077153;28;19979;-80
2021/12/02 13:26:23;;;;;;;;;;;3.50;99.90;;;;;;5077971;28;19924;-79
2021/12/02 13:28:51;;;;;;;;;;;3.70;99.90;;;;;;5079645;28;19924;-79
2021/12/02 13:31:19;;;;;;;;;;;3.70;99.90;;;;;;5079175;28;19935;-79
2021/12/02 13:33:49;;;;;;;;;;;3.50;99.90;;;;;;5077833;28;19928;-79
2021/12/02 13:36:17;;;;;;;;;;;2.70;99.90;;;;;;5079012;28;20298;-78
2021/12/02 13:38:44;;;;;;;;;;;3.70;99.90;;;;;;5079096;28;19925;-79
2021/12/02 13:41:18;;;;;;;;;;;3.70;99.90;;;;;;5079274;28;19925;-80
2021/12/02 13:43:53;;;;;;;;;;;3.70;99.90;;;;;;5078474;28;20443;-79
2021/12/02 13:46:29;;;;;;;;;;;3.80;99.90;;;;;;5079387;28;19924;-79
2021/12/02 13:48:56;;;;;;;;;;;3.70;99.90;;;;;;5079393;28;19951;-77
2021/12/02 13:54:16;;;;;;;;;;;3.50;99.90;;;;;;5075989;28;19921;-79
2021/12/02 13:56:42;;;;;;;;;;;3.50;99.90;;;;;;5076600;28;19929;-79
2021/12/02 13:59:14;;;;;;;;;;;3.50;99.90;;;;;;5079196;28;19956;-78
2021/12/02 14:01:50;;;;;;;;;;;3.50;99.90;;;;;;5082364;28;19924;-79
2021/12/02 14:04:16;;;;;;;;;;;3.50;99.90;;;;;;5086345;28;20275;-78
2021/12/02 14:06:43;;;;;;;;;;;3.50;99.90;;;;;;5088662;28;19986;-78
2021/12/02 14:09:13;;;;;;;;;;;3.60;99.90;;;;;;5088707;28;19924;-77
2021/12/02 14:11:39;;;;;;;;;;;3.40;99.90;;;;;;5088265;28;19982;-78
2021/12/02 14:14:06;;;;;;;;;;;3.50;99.90;;;;;;5067102;28;19924;-78
2021/12/02 14:16:32;;;;;;;;;;;3.60;99.90;;;;;;5088046;28;19924;-78
2021/12/02 14:19:09;;;;;;;;;;;3.50;99.90;;;;;;5090018;28;19931;-79
2021/12/02 14:21:36;;;;;;;;;;;3.50;99.90;;;;;;5081723;28;19924;-78
2021/12/02 14:24:02;;;;;;;;;;;3.50;99.90;;;;;;5080543;28;19972;-79
2021/12/02 14:26:30;;;;;;;;;;;3.60;99.90;;;;;;5080036;28;19931;-79
2021/12/02 14:28:57;;;;;;;;;;;3.20;99.90;;;;;;5079602;28;19974;-79
2021/12/02 14:31:25;;;;;;;;;;;3.30;99.90;;;;;;5080289;28;19925;-79
2021/12/02 14:33:53;;;;;;;;;;;3.40;99.90;;;;;;5078179;28;19924;-80
2021/12/02 14:36:22;;;;;;;;;;;3.20;99.90;;;;;;5080287;28;19935;-80
2021/12/02 14:38:50;;;;;;;;;;;3.30;99.90;;;;;;5082562;28;20000;-79
2021/12/02 14:41:17;;;;;;;;;;;3.00;99.90;;;;;;5081135;28;20011;-79
2021/12/02 14:43:48;;;;;;;;;;;3.20;99.90;;;;;;5079778;28;19925;-78
2021/12/02 14:46:25;;;;;;;;;;;3.20;99.90;;;;;;5086154;28;19924;-78
2021/12/02 14:49:02;;;;;;;;;;;3.10;99.90;;;;;;5091802;28;19928;-77